sensor_id;sensor_type;location;lat;lon;timestamp;P1;durP1;ratioP1;P2;durP2;ratioP2
27925;SDS011;15267;47.838;12.128;2022-08-03T00:01:43;4.93;;;2.15;;
27925;SDS011;15267;47.838;12.128;2022-08-03T00:04:09;4.47;;;2.40;;
27925;SDS011;15267;47.838;12.128;2022-08-03T00:06:36;5.72;;;2.30;;
27925;SDS011;15267;47.838;12.128;2022-08-03T00:09:02;2.20;;;2.00;;
27925;SDS011;15267;47.838;12.128;2022-08-03T00:11:28;3.78;;;2.42;;
27925;SDS011;15267;47.838;12.128;2022-08-03T00:13:54;4.18;;;2.15;;
27925;SDS011;15267;47.838;12.128;2022-08-03T00:16:20;3.30;;;2.00;;
27925;SDS011;15267;47.838;12.128;2022-08-03T00:18:46;7.82;;;2.13;;
27925;SDS011;15267;47.838;12.128;2022-08-03T00:21:12;3.97;;;1.98;;
27925;SDS011;15267;47.838;12.128;2022-08-03T00:23:38;4.00;;;2.13;;
27925;SDS011;15267;47.838;12.128;2022-08-03T00:26:04;5.05;;;2.63;;
27925;SDS011;15267;47.838;12.128;2022-08-03T00:28:30;4.20;;;2.28;;
27925;SDS011;15267;47.838;12.128;2022-08-03T00:30:56;3.17;;;2.00;;
27925;SDS011;15267;47.838;12.128;2022-08-03T00:33:22;4.00;;;1.92;;
27925;SDS011;15267;47.838;12.128;2022-08-03T00:35:48;3.03;;;2.00;;
27925;SDS011;15267;47.838;12.128;2022-08-03T00:38:14;3.85;;;1.88;;
27925;SDS011;15267;47.838;12.128;2022-08-03T00:40:40;2.88;;;1.75;;
27925;SDS011;15267;47.838;12.128;2022-08-03T00:43:06;2.92;;;1.80;;
27925;SDS011;15267;47.838;12.128;2022-08-03T00:47:59;3.63;;;1.80;;
27925;SDS011;15267;47.838;12.128;2022-08-03T00:50:25;2.65;;;1.70;;
27925;SDS011;15267;47.838;12.128;2022-08-03T00:52:53;3.90;;;1.65;;
27925;SDS011;15267;47.838;12.128;2022-08-03T00:55:20;2.90;;;2.00;;
27925;SDS011;15267;47.838;12.128;2022-08-03T00:57:46;2.63;;;1.70;;
27925;SDS011;15267;47.838;12.128;2022-08-03T01:00:13;2.63;;;1.52;;
27925;SDS011;15267;47.838;12.128;2022-08-03T01:02:39;2.35;;;1.83;;
27925;SDS011;15267;47.838;12.128;2022-08-03T01:05:05;2.95;;;1.88;;
27925;SDS011;15267;47.838;12.128;2022-08-03T01:10:24;3.38;;;1.60;;
27925;SDS011;15267;47.838;12.128;2022-08-03T01:15:42;3.90;;;1.70;;
27925;SDS011;15267;47.838;12.128;2022-08-03T01:18:10;2.95;;;1.65;;
27925;SDS011;15267;47.838;12.128;2022-08-03T01:20:39;3.95;;;1.65;;
27925;SDS011;15267;47.838;12.128;2022-08-03T01:30:44;3.17;;;1.58;;
27925;SDS011;15267;47.838;12.128;2022-08-03T01:33:12;7.32;;;1.60;;
27925;SDS011;15267;47.838;12.128;2022-08-03T01:35:41;4.20;;;1.52;;
27925;SDS011;15267;47.838;12.128;2022-08-03T01:38:10;3.58;;;1.50;;
27925;SDS011;15267;47.838;12.128;2022-08-03T01:40:38;3.40;;;1.58;;
27925;SDS011;15267;47.838;12.128;2022-08-03T01:43:04;2.90;;;1.40;;
27925;SDS011;15267;47.838;12.128;2022-08-03T01:45:31;2.00;;;1.40;;
27925;SDS011;15267;47.838;12.128;2022-08-03T01:47:58;2.17;;;1.63;;
27925;SDS011;15267;47.838;12.128;2022-08-03T01:50:26;1.90;;;1.60;;
27925;SDS011;15267;47.838;12.128;2022-08-03T01:52:53;3.38;;;1.77;;
27925;SDS011;15267;47.838;12.128;2022-08-03T01:55:20;2.10;;;1.58;;
27925;SDS011;15267;47.838;12.128;2022-08-03T01:57:47;4.00;;;1.50;;
27925;SDS011;15267;47.838;12.128;2022-08-03T02:00:14;2.70;;;1.45;;
27925;SDS011;15267;47.838;12.128;2022-08-03T02:02:41;4.85;;;1.75;;
27925;SDS011;15267;47.838;12.128;2022-08-03T02:05:08;2.42;;;1.52;;
27925;SDS011;15267;47.838;12.128;2022-08-03T02:07:34;4.43;;;1.90;;
27925;SDS011;15267;47.838;12.128;2022-08-03T02:10:03;5.78;;;1.85;;
27925;SDS011;15267;47.838;12.128;2022-08-03T02:12:30;5.68;;;1.90;;
27925;SDS011;15267;47.838;12.128;2022-08-03T02:14:57;3.92;;;1.92;;
27925;SDS011;15267;47.838;12.128;2022-08-03T02:17:24;2.55;;;1.65;;
27925;SDS011;15267;47.838;12.128;2022-08-03T02:19:51;4.55;;;1.98;;
27925;SDS011;15267;47.838;12.128;2022-08-03T02:22:17;2.67;;;1.30;;
27925;SDS011;15267;47.838;12.128;2022-08-03T02:24:43;4.85;;;1.73;;
27925;SDS011;15267;47.838;12.128;2022-08-03T02:27:11;2.38;;;1.80;;
27925;SDS011;15267;47.838;12.128;2022-08-03T02:29:37;3.95;;;1.70;;
27925;SDS011;15267;47.838;12.128;2022-08-03T02:32:05;5.32;;;1.85;;
27925;SDS011;15267;47.838;12.128;2022-08-03T02:34:32;4.72;;;1.80;;
27925;SDS011;15267;47.838;12.128;2022-08-03T02:36:59;5.72;;;1.88;;
27925;SDS011;15267;47.838;12.128;2022-08-03T02:39:27;3.60;;;1.45;;
27925;SDS011;15267;47.838;12.128;2022-08-03T02:41:56;4.43;;;1.80;;
27925;SDS011;15267;47.838;12.128;2022-08-03T02:44:26;5.63;;;1.90;;
27925;SDS011;15267;47.838;12.128;2022-08-03T02:46:57;6.25;;;1.70;;
27925;SDS011;15267;47.838;12.128;2022-08-03T02:49:25;3.75;;;1.35;;
27925;SDS011;15267;47.838;12.128;2022-08-03T02:51:52;7.30;;;1.67;;
27925;SDS011;15267;47.838;12.128;2022-08-03T02:54:19;3.55;;;1.80;;
27925;SDS011;15267;47.838;12.128;2022-08-03T02:56:46;5.95;;;1.67;;
27925;SDS011;15267;47.838;12.128;2022-08-03T02:59:13;5.53;;;1.70;;
27925;SDS011;15267;47.838;12.128;2022-08-03T03:01:39;4.50;;;1.88;;
27925;SDS011;15267;47.838;12.128;2022-08-03T03:04:06;6.05;;;1.65;;
27925;SDS011;15267;47.838;12.128;2022-08-03T03:06:32;4.78;;;1.80;;
27925;SDS011;15267;47.838;12.128;2022-08-03T03:08:59;3.95;;;1.83;;
27925;SDS011;15267;47.838;12.128;2022-08-03T03:11:26;4.32;;;1.77;;
27925;SDS011;15267;47.838;12.128;2022-08-03T03:13:52;2.05;;;1.60;;
27925;SDS011;15267;47.838;12.128;2022-08-03T03:16:21;4.35;;;1.88;;
27925;SDS011;15267;47.838;12.128;2022-08-03T03:18:48;4.78;;;1.70;;
27925;SDS011;15267;47.838;12.128;2022-08-03T03:21:15;4.65;;;1.70;;
27925;SDS011;15267;47.838;12.128;2022-08-03T03:23:42;2.67;;;1.70;;
27925;SDS011;15267;47.838;12.128;2022-08-03T03:26:10;8.05;;;1.80;;
27925;SDS011;15267;47.838;12.128;2022-08-03T03:28:37;3.85;;;1.63;;
27925;SDS011;15267;47.838;12.128;2022-08-03T03:31:04;2.85;;;1.77;;
27925;SDS011;15267;47.838;12.128;2022-08-03T03:33:31;5.07;;;1.48;;
27925;SDS011;15267;47.838;12.128;2022-08-03T03:35:57;6.45;;;1.50;;
27925;SDS011;15267;47.838;12.128;2022-08-03T03:38:24;3.30;;;1.50;;
27925;SDS011;15267;47.838;12.128;2022-08-03T03:40:50;4.68;;;1.50;;
27925;SDS011;15267;47.838;12.128;2022-08-03T03:43:16;4.65;;;1.60;;
27925;SDS011;15267;47.838;12.128;2022-08-03T03:45:42;4.55;;;1.40;;
27925;SDS011;15267;47.838;12.128;2022-08-03T03:48:08;4.10;;;1.48;;
27925;SDS011;15267;47.838;12.128;2022-08-03T03:50:35;5.38;;;1.52;;
27925;SDS011;15267;47.838;12.128;2022-08-03T03:53:07;3.92;;;1.42;;
27925;SDS011;15267;47.838;12.128;2022-08-03T03:55:33;3.40;;;1.35;;
27925;SDS011;15267;47.838;12.128;2022-08-03T03:57:59;5.20;;;1.67;;
27925;SDS011;15267;47.838;12.128;2022-08-03T04:00:25;3.95;;;1.70;;
27925;SDS011;15267;47.838;12.128;2022-08-03T04:02:51;2.30;;;1.60;;
27925;SDS011;15267;47.838;12.128;2022-08-03T04:05:17;1.80;;;1.40;;
27925;SDS011;15267;47.838;12.128;2022-08-03T04:08:02;4.75;;;1.38;;
27925;SDS011;15267;47.838;12.128;2022-08-03T04:11:07;4.85;;;1.58;;
27925;SDS011;15267;47.838;12.128;2022-08-03T04:13:58;1.63;;;1.42;;
27925;SDS011;15267;47.838;12.128;2022-08-03T04:16:24;4.60;;;1.80;;
27925;SDS011;15267;47.838;12.128;2022-08-03T04:18:52;2.03;;;1.50;;
27925;SDS011;15267;47.838;12.128;2022-08-03T04:21:18;2.03;;;1.50;;
27925;SDS011;15267;47.838;12.128;2022-08-03T04:23:47;3.90;;;1.50;;
27925;SDS011;15267;47.838;12.128;2022-08-03T04:26:15;2.75;;;1.67;;
27925;SDS011;15267;47.838;12.128;2022-08-03T04:28:43;2.60;;;1.63;;
27925;SDS011;15267;47.838;12.128;2022-08-03T04:31:10;3.25;;;1.70;;
27925;SDS011;15267;47.838;12.128;2022-08-03T04:33:37;2.13;;;1.70;;
27925;SDS011;15267;47.838;12.128;2022-08-03T04:36:04;3.40;;;1.67;;
27925;SDS011;15267;47.838;12.128;2022-08-03T04:38:32;4.80;;;1.65;;
27925;SDS011;15267;47.838;12.128;2022-08-03T04:41:01;4.28;;;1.60;;
27925;SDS011;15267;47.838;12.128;2022-08-03T04:43:27;3.50;;;1.77;;
27925;SDS011;15267;47.838;12.128;2022-08-03T04:45:54;3.75;;;1.60;;
27925;SDS011;15267;47.838;12.128;2022-08-03T04:48:20;3.67;;;1.60;;
27925;SDS011;15267;47.838;12.128;2022-08-03T04:50:47;4.57;;;1.90;;
27925;SDS011;15267;47.838;12.128;2022-08-03T04:53:13;6.63;;;2.05;;
27925;SDS011;15267;47.838;12.128;2022-08-03T04:55:40;3.72;;;1.85;;
27925;SDS011;15267;47.838;12.128;2022-08-03T04:58:06;2.83;;;1.90;;
27925;SDS011;15267;47.838;12.128;2022-08-03T05:00:32;4.80;;;1.98;;
27925;SDS011;15267;47.838;12.128;2022-08-03T05:02:58;3.28;;;1.60;;
27925;SDS011;15267;47.838;12.128;2022-08-03T05:05:24;3.00;;;1.50;;
27925;SDS011;15267;47.838;12.128;2022-08-03T05:07:50;4.18;;;1.70;;
27925;SDS011;15267;47.838;12.128;2022-08-03T05:10:16;2.97;;;1.63;;
27925;SDS011;15267;47.838;12.128;2022-08-03T05:12:43;5.10;;;1.80;;
27925;SDS011;15267;47.838;12.128;2022-08-03T05:15:09;3.50;;;1.77;;
27925;SDS011;15267;47.838;12.128;2022-08-03T05:17:35;2.83;;;1.80;;
27925;SDS011;15267;47.838;12.128;2022-08-03T05:20:02;2.92;;;1.70;;
27925;SDS011;15267;47.838;12.128;2022-08-03T05:22:28;2.97;;;1.42;;
27925;SDS011;15267;47.838;12.128;2022-08-03T05:24:54;4.38;;;1.50;;
27925;SDS011;15267;47.838;12.128;2022-08-03T05:27:20;6.22;;;1.60;;
27925;SDS011;15267;47.838;12.128;2022-08-03T05:29:47;2.65;;;1.52;;
27925;SDS011;15267;47.838;12.128;2022-08-03T05:32:13;2.35;;;1.60;;
27925;SDS011;15267;47.838;12.128;2022-08-03T05:34:39;4.30;;;1.85;;
27925;SDS011;15267;47.838;12.128;2022-08-03T05:37:05;7.50;;;1.58;;
27925;SDS011;15267;47.838;12.128;2022-08-03T05:39:32;8.43;;;1.60;;
27925;SDS011;15267;47.838;12.128;2022-08-03T05:41:58;7.40;;;1.83;;
27925;SDS011;15267;47.838;12.128;2022-08-03T05:44:24;9.55;;;2.25;;
27925;SDS011;15267;47.838;12.128;2022-08-03T05:46:50;7.70;;;2.08;;
27925;SDS011;15267;47.838;12.128;2022-08-03T05:49:17;6.03;;;2.50;;
27925;SDS011;15267;47.838;12.128;2022-08-03T05:51:43;9.52;;;2.22;;
27925;SDS011;15267;47.838;12.128;2022-08-03T05:54:09;3.72;;;2.20;;
27925;SDS011;15267;47.838;12.128;2022-08-03T05:56:35;7.45;;;2.08;;
27925;SDS011;15267;47.838;12.128;2022-08-03T05:59:01;8.32;;;2.10;;
27925;SDS011;15267;47.838;12.128;2022-08-03T06:01:27;10.13;;;2.50;;
27925;SDS011;15267;47.838;12.128;2022-08-03T06:03:56;8.18;;;2.42;;
27925;SDS011;15267;47.838;12.128;2022-08-03T06:06:22;12.10;;;2.13;;
27925;SDS011;15267;47.838;12.128;2022-08-03T06:08:48;4.50;;;1.90;;
27925;SDS011;15267;47.838;12.128;2022-08-03T06:11:14;6.05;;;2.10;;
27925;SDS011;15267;47.838;12.128;2022-08-03T06:13:40;4.72;;;2.00;;
27925;SDS011;15267;47.838;12.128;2022-08-03T06:16:06;3.22;;;1.95;;
27925;SDS011;15267;47.838;12.128;2022-08-03T06:18:33;3.58;;;1.90;;
27925;SDS011;15267;47.838;12.128;2022-08-03T06:20:59;2.65;;;1.73;;
27925;SDS011;15267;47.838;12.128;2022-08-03T06:23:25;3.50;;;2.03;;
27925;SDS011;15267;47.838;12.128;2022-08-03T06:25:50;2.53;;;2.00;;
27925;SDS011;15267;47.838;12.128;2022-08-03T06:28:16;5.60;;;2.05;;
27925;SDS011;15267;47.838;12.128;2022-08-03T06:30:43;5.43;;;2.10;;
27925;SDS011;15267;47.838;12.128;2022-08-03T06:33:09;4.45;;;2.03;;
27925;SDS011;15267;47.838;12.128;2022-08-03T06:35:35;4.32;;;1.90;;
27925;SDS011;15267;47.838;12.128;2022-08-03T06:38:01;4.82;;;2.05;;
27925;SDS011;15267;47.838;12.128;2022-08-03T06:40:27;4.07;;;1.70;;
27925;SDS011;15267;47.838;12.128;2022-08-03T06:42:59;2.50;;;1.70;;
27925;SDS011;15267;47.838;12.128;2022-08-03T06:45:26;4.45;;;1.65;;
27925;SDS011;15267;47.838;12.128;2022-08-03T06:47:59;2.13;;;1.42;;
27925;SDS011;15267;47.838;12.128;2022-08-03T06:50:26;3.15;;;1.80;;
27925;SDS011;15267;47.838;12.128;2022-08-03T06:52:52;3.90;;;1.63;;
27925;SDS011;15267;47.838;12.128;2022-08-03T06:55:18;2.80;;;1.80;;
27925;SDS011;15267;47.838;12.128;2022-08-03T06:57:44;4.35;;;1.80;;
27925;SDS011;15267;47.838;12.128;2022-08-03T07:00:10;3.35;;;1.80;;
27925;SDS011;15267;47.838;12.128;2022-08-03T07:02:36;6.78;;;1.40;;
27925;SDS011;15267;47.838;12.128;2022-08-03T07:05:03;3.55;;;2.00;;
27925;SDS011;15267;47.838;12.128;2022-08-03T07:07:29;5.47;;;1.58;;
27925;SDS011;15267;47.838;12.128;2022-08-03T07:09:55;3.45;;;1.63;;
27925;SDS011;15267;47.838;12.128;2022-08-03T07:12:21;5.82;;;1.55;;
27925;SDS011;15267;47.838;12.128;2022-08-03T07:14:47;6.97;;;1.70;;
27925;SDS011;15267;47.838;12.128;2022-08-03T07:17:13;7.50;;;1.70;;
27925;SDS011;15267;47.838;12.128;2022-08-03T07:19:39;4.03;;;1.60;;
27925;SDS011;15267;47.838;12.128;2022-08-03T07:22:05;2.40;;;1.67;;
27925;SDS011;15267;47.838;12.128;2022-08-03T07:24:32;4.80;;;1.48;;
27925;SDS011;15267;47.838;12.128;2022-08-03T07:26:58;3.50;;;1.40;;
27925;SDS011;15267;47.838;12.128;2022-08-03T07:29:25;3.63;;;1.40;;
27925;SDS011;15267;47.838;12.128;2022-08-03T07:31:51;2.63;;;1.65;;
27925;SDS011;15267;47.838;12.128;2022-08-03T07:34:17;2.10;;;1.40;;
27925;SDS011;15267;47.838;12.128;2022-08-03T07:36:43;3.65;;;1.50;;
27925;SDS011;15267;47.838;12.128;2022-08-03T07:39:09;2.75;;;1.30;;
27925;SDS011;15267;47.838;12.128;2022-08-03T07:41:35;2.05;;;1.50;;
27925;SDS011;15267;47.838;12.128;2022-08-03T07:44:01;6.20;;;1.65;;
27925;SDS011;15267;47.838;12.128;2022-08-03T07:46:27;3.30;;;1.50;;
27925;SDS011;15267;47.838;12.128;2022-08-03T07:48:53;2.83;;;1.50;;
27925;SDS011;15267;47.838;12.128;2022-08-03T07:51:19;2.65;;;1.45;;
27925;SDS011;15267;47.838;12.128;2022-08-03T07:53:45;1.77;;;1.40;;
27925;SDS011;15267;47.838;12.128;2022-08-03T07:56:11;2.17;;;1.27;;
27925;SDS011;15267;47.838;12.128;2022-08-03T07:58:37;6.60;;;1.70;;
27925;SDS011;15267;47.838;12.128;2022-08-03T08:01:03;5.50;;;1.42;;
27925;SDS011;15267;47.838;12.128;2022-08-03T08:03:29;2.83;;;1.30;;
27925;SDS011;15267;47.838;12.128;2022-08-03T08:05:55;3.00;;;1.50;;
27925;SDS011;15267;47.838;12.128;2022-08-03T08:08:21;4.53;;;1.52;;
27925;SDS011;15267;47.838;12.128;2022-08-03T08:10:47;3.63;;;1.60;;
27925;SDS011;15267;47.838;12.128;2022-08-03T08:13:13;3.05;;;1.40;;
27925;SDS011;15267;47.838;12.128;2022-08-03T08:15:39;3.22;;;1.50;;
27925;SDS011;15267;47.838;12.128;2022-08-03T08:18:05;2.65;;;1.40;;
27925;SDS011;15267;47.838;12.128;2022-08-03T08:20:32;2.88;;;1.50;;
27925;SDS011;15267;47.838;12.128;2022-08-03T08:22:59;4.38;;;1.83;;
27925;SDS011;15267;47.838;12.128;2022-08-03T08:25:26;3.83;;;1.63;;
27925;SDS011;15267;47.838;12.128;2022-08-03T08:27:52;3.78;;;1.73;;
27925;SDS011;15267;47.838;12.128;2022-08-03T08:30:19;4.35;;;1.50;;
27925;SDS011;15267;47.838;12.128;2022-08-03T08:32:45;4.97;;;1.50;;
27925;SDS011;15267;47.838;12.128;2022-08-03T08:35:11;2.42;;;1.50;;
27925;SDS011;15267;47.838;12.128;2022-08-03T08:37:38;2.67;;;1.50;;
27925;SDS011;15267;47.838;12.128;2022-08-03T08:40:05;6.47;;;1.40;;
27925;SDS011;15267;47.838;12.128;2022-08-03T08:42:31;2.80;;;1.42;;
27925;SDS011;15267;47.838;12.128;2022-08-03T08:44:59;3.30;;;1.60;;
27925;SDS011;15267;47.838;12.128;2022-08-03T08:47:28;5.30;;;1.63;;
27925;SDS011;15267;47.838;12.128;2022-08-03T08:49:54;3.25;;;1.50;;
27925;SDS011;15267;47.838;12.128;2022-08-03T08:52:26;5.68;;;1.50;;
27925;SDS011;15267;47.838;12.128;2022-08-03T08:54:59;5.80;;;1.58;;
27925;SDS011;15267;47.838;12.128;2022-08-03T08:57:28;47.03;;;5.57;;
27925;SDS011;15267;47.838;12.128;2022-08-03T08:59:55;16.02;;;2.80;;
27925;SDS011;15267;47.838;12.128;2022-08-03T09:02:22;7.57;;;2.10;;
27925;SDS011;15267;47.838;12.128;2022-08-03T09:04:48;8.07;;;1.90;;
27925;SDS011;15267;47.838;12.128;2022-08-03T09:07:15;8.10;;;1.70;;
27925;SDS011;15267;47.838;12.128;2022-08-03T09:09:41;4.63;;;1.60;;
27925;SDS011;15267;47.838;12.128;2022-08-03T09:12:07;5.30;;;1.50;;
27925;SDS011;15267;47.838;12.128;2022-08-03T09:14:33;4.75;;;1.33;;
27925;SDS011;15267;47.838;12.128;2022-08-03T09:17:00;5.60;;;1.58;;
27925;SDS011;15267;47.838;12.128;2022-08-03T09:19:27;3.47;;;1.42;;
27925;SDS011;15267;47.838;12.128;2022-08-03T09:24:37;1.30;;;1.17;;
27925;SDS011;15267;47.838;12.128;2022-08-03T09:27:04;5.35;;;1.30;;
27925;SDS011;15267;47.838;12.128;2022-08-03T09:29:31;3.42;;;1.20;;
27925;SDS011;15267;47.838;12.128;2022-08-03T09:31:59;2.58;;;1.15;;
27925;SDS011;15267;47.838;12.128;2022-08-03T09:34:25;2.95;;;1.23;;
27925;SDS011;15267;47.838;12.128;2022-08-03T09:36:53;2.97;;;1.30;;
27925;SDS011;15267;47.838;12.128;2022-08-03T09:39:20;4.05;;;1.27;;
27925;SDS011;15267;47.838;12.128;2022-08-03T09:41:48;2.53;;;1.20;;
27925;SDS011;15267;47.838;12.128;2022-08-03T09:44:35;1.50;;;1.40;;
27925;SDS011;15267;47.838;12.128;2022-08-03T09:47:01;1.63;;;1.13;;
27925;SDS011;15267;47.838;12.128;2022-08-03T09:49:27;2.25;;;1.30;;
27925;SDS011;15267;47.838;12.128;2022-08-03T09:51:53;1.30;;;1.00;;
27925;SDS011;15267;47.838;12.128;2022-08-03T09:54:29;3.80;;;1.45;;
27925;SDS011;15267;47.838;12.128;2022-08-03T09:56:55;2.10;;;1.30;;
27925;SDS011;15267;47.838;12.128;2022-08-03T09:59:26;3.35;;;1.02;;
27925;SDS011;15267;47.838;12.128;2022-08-03T10:01:53;1.67;;;1.20;;
27925;SDS011;15267;47.838;12.128;2022-08-03T10:04:19;5.00;;;1.15;;
27925;SDS011;15267;47.838;12.128;2022-08-03T10:07:00;4.85;;;1.20;;
27925;SDS011;15267;47.838;12.128;2022-08-03T10:09:26;1.90;;;0.90;;
27925;SDS011;15267;47.838;12.128;2022-08-03T10:11:52;3.35;;;0.93;;
27925;SDS011;15267;47.838;12.128;2022-08-03T10:14:19;1.63;;;0.90;;
27925;SDS011;15267;47.838;12.128;2022-08-03T10:16:46;3.35;;;1.00;;
27925;SDS011;15267;47.838;12.128;2022-08-03T10:19:12;1.52;;;0.75;;
27925;SDS011;15267;47.838;12.128;2022-08-03T10:21:40;3.70;;;0.80;;
27925;SDS011;15267;47.838;12.128;2022-08-03T10:24:08;1.25;;;0.90;;
27925;SDS011;15267;47.838;12.128;2022-08-03T10:26:38;1.63;;;0.80;;
27925;SDS011;15267;47.838;12.128;2022-08-03T10:29:09;1.02;;;0.80;;
27925;SDS011;15267;47.838;12.128;2022-08-03T10:31:40;2.85;;;0.88;;
27925;SDS011;15267;47.838;12.128;2022-08-03T10:34:11;0.95;;;0.73;;
27925;SDS011;15267;47.838;12.128;2022-08-03T10:36:40;2.72;;;0.70;;
27925;SDS011;15267;47.838;12.128;2022-08-03T10:39:06;2.30;;;0.80;;
27925;SDS011;15267;47.838;12.128;2022-08-03T10:41:35;1.60;;;0.88;;
27925;SDS011;15267;47.838;12.128;2022-08-03T10:46:28;1.38;;;0.73;;
27925;SDS011;15267;47.838;12.128;2022-08-03T10:48:54;1.77;;;0.90;;
27925;SDS011;15267;47.838;12.128;2022-08-03T10:51:21;1.95;;;0.70;;
27925;SDS011;15267;47.838;12.128;2022-08-03T10:53:47;1.55;;;0.68;;
27925;SDS011;15267;47.838;12.128;2022-08-03T10:59:13;1.67;;;0.60;;
27925;SDS011;15267;47.838;12.128;2022-08-03T11:02:00;1.17;;;0.70;;
27925;SDS011;15267;47.838;12.128;2022-08-03T11:04:26;1.60;;;0.70;;
27925;SDS011;15267;47.838;12.128;2022-08-03T11:09:41;2.55;;;0.90;;
27925;SDS011;15267;47.838;12.128;2022-08-03T11:12:28;2.10;;;0.70;;
27925;SDS011;15267;47.838;12.128;2022-08-03T11:14:54;1.35;;;0.70;;
27925;SDS011;15267;47.838;12.128;2022-08-03T11:17:21;0.90;;;0.63;;
27925;SDS011;15267;47.838;12.128;2022-08-03T11:19:48;2.00;;;0.70;;
27925;SDS011;15267;47.838;12.128;2022-08-03T11:22:15;1.25;;;0.80;;
27925;SDS011;15267;47.838;12.128;2022-08-03T11:43:10;2.33;;;1.02;;
27925;SDS011;15267;47.838;12.128;2022-08-03T11:48:21;1.08;;;0.80;;
27925;SDS011;15267;47.838;12.128;2022-08-03T11:50:47;0.98;;;0.70;;
27925;SDS011;15267;47.838;12.128;2022-08-03T11:53:15;1.30;;;0.88;;
27925;SDS011;15267;47.838;12.128;2022-08-03T11:55:42;1.17;;;0.80;;
27925;SDS011;15267;47.838;12.128;2022-08-03T11:58:20;3.25;;;0.75;;
27925;SDS011;15267;47.838;12.128;2022-08-03T12:00:47;0.93;;;0.70;;
27925;SDS011;15267;47.838;12.128;2022-08-03T12:03:14;0.70;;;0.60;;
27925;SDS011;15267;47.838;12.128;2022-08-03T12:05:42;1.25;;;0.80;;
27925;SDS011;15267;47.838;12.128;2022-08-03T12:08:09;1.23;;;0.77;;
27925;SDS011;15267;47.838;12.128;2022-08-03T12:10:36;1.48;;;0.60;;
27925;SDS011;15267;47.838;12.128;2022-08-03T12:13:03;0.93;;;0.70;;
27925;SDS011;15267;47.838;12.128;2022-08-03T12:15:35;2.15;;;0.75;;
27925;SDS011;15267;47.838;12.128;2022-08-03T12:18:02;1.02;;;0.85;;
27925;SDS011;15267;47.838;12.128;2022-08-03T12:20:29;2.00;;;0.75;;
27925;SDS011;15267;47.838;12.128;2022-08-03T12:23:01;0.75;;;0.63;;
27925;SDS011;15267;47.838;12.128;2022-08-03T12:25:27;1.75;;;0.70;;
27925;SDS011;15267;47.838;12.128;2022-08-03T12:27:53;0.75;;;0.70;;
27925;SDS011;15267;47.838;12.128;2022-08-03T12:30:30;1.40;;;0.52;;
27925;SDS011;15267;47.838;12.128;2022-08-03T12:32:56;1.83;;;0.80;;
27925;SDS011;15267;47.838;12.128;2022-08-03T12:35:22;2.83;;;0.65;;
27925;SDS011;15267;47.838;12.128;2022-08-03T12:37:49;3.40;;;1.02;;
27925;SDS011;15267;47.838;12.128;2022-08-03T12:40:22;1.27;;;0.60;;
27925;SDS011;15267;47.838;12.128;2022-08-03T12:45:18;1.00;;;0.70;;
27925;SDS011;15267;47.838;12.128;2022-08-03T12:47:57;2.40;;;0.80;;
27925;SDS011;15267;47.838;12.128;2022-08-03T12:50:30;0.70;;;0.70;;
27925;SDS011;15267;47.838;12.128;2022-08-03T12:52:57;3.92;;;0.80;;
27925;SDS011;15267;47.838;12.128;2022-08-03T12:55:23;1.77;;;0.70;;
27925;SDS011;15267;47.838;12.128;2022-08-03T12:57:57;2.38;;;0.80;;
27925;SDS011;15267;47.838;12.128;2022-08-03T13:00:23;1.50;;;0.50;;
27925;SDS011;15267;47.838;12.128;2022-08-03T13:03:07;0.85;;;0.65;;
27925;SDS011;15267;47.838;12.128;2022-08-03T13:05:41;2.25;;;0.70;;
27925;SDS011;15267;47.838;12.128;2022-08-03T13:08:17;8.95;;;1.38;;
27925;SDS011;15267;47.838;12.128;2022-08-03T13:10:43;3.50;;;1.00;;
27925;SDS011;15267;47.838;12.128;2022-08-03T13:13:10;1.58;;;0.82;;
27925;SDS011;15267;47.838;12.128;2022-08-03T13:15:36;11.40;;;1.33;;
27925;SDS011;15267;47.838;12.128;2022-08-03T13:18:02;15.38;;;2.17;;
27925;SDS011;15267;47.838;12.128;2022-08-03T13:20:28;3.53;;;0.80;;
27925;SDS011;15267;47.838;12.128;2022-08-03T13:22:54;4.50;;;0.95;;
27925;SDS011;15267;47.838;12.128;2022-08-03T13:25:20;4.15;;;0.70;;
27925;SDS011;15267;47.838;12.128;2022-08-03T13:27:47;1.02;;;0.50;;
27925;SDS011;15267;47.838;12.128;2022-08-03T13:30:13;1.15;;;0.85;;
27925;SDS011;15267;47.838;12.128;2022-08-03T13:32:39;2.17;;;0.60;;
27925;SDS011;15267;47.838;12.128;2022-08-03T13:35:05;1.88;;;0.70;;
27925;SDS011;15267;47.838;12.128;2022-08-03T13:37:32;1.90;;;0.70;;
27925;SDS011;15267;47.838;12.128;2022-08-03T13:39:58;1.02;;;0.80;;
27925;SDS011;15267;47.838;12.128;2022-08-03T13:42:24;7.53;;;1.00;;
27925;SDS011;15267;47.838;12.128;2022-08-03T13:44:51;2.72;;;0.88;;
27925;SDS011;15267;47.838;12.128;2022-08-03T13:47:17;2.85;;;0.80;;
27925;SDS011;15267;47.838;12.128;2022-08-03T13:49:43;2.15;;;0.77;;
27925;SDS011;15267;47.838;12.128;2022-08-03T13:52:09;2.80;;;0.80;;
27925;SDS011;15267;47.838;12.128;2022-08-03T13:54:35;0.65;;;0.60;;
27925;SDS011;15267;47.838;12.128;2022-08-03T13:57:01;0.75;;;0.70;;
27925;SDS011;15267;47.838;12.128;2022-08-03T13:59:27;2.70;;;0.88;;
27925;SDS011;15267;47.838;12.128;2022-08-03T14:01:53;0.60;;;0.60;;
27925;SDS011;15267;47.838;12.128;2022-08-03T14:04:19;1.02;;;0.52;;
27925;SDS011;15267;47.838;12.128;2022-08-03T14:06:45;1.67;;;0.60;;
27925;SDS011;15267;47.838;12.128;2022-08-03T14:09:12;1.70;;;0.63;;
27925;SDS011;15267;47.838;12.128;2022-08-03T14:11:41;1.48;;;0.65;;
27925;SDS011;15267;47.838;12.128;2022-08-03T14:14:07;0.88;;;0.70;;
27925;SDS011;15267;47.838;12.128;2022-08-03T14:16:34;8.48;;;1.33;;
27925;SDS011;15267;47.838;12.128;2022-08-03T14:19:00;6.13;;;0.82;;
27925;SDS011;15267;47.838;12.128;2022-08-03T14:21:26;1.75;;;0.52;;
27925;SDS011;15267;47.838;12.128;2022-08-03T14:23:52;2.35;;;0.90;;
27925;SDS011;15267;47.838;12.128;2022-08-03T14:26:18;2.58;;;0.60;;
27925;SDS011;15267;47.838;12.128;2022-08-03T14:28:44;0.77;;;0.52;;
27925;SDS011;15267;47.838;12.128;2022-08-03T14:31:10;1.92;;;0.80;;
27925;SDS011;15267;47.838;12.128;2022-08-03T14:33:36;2.60;;;0.70;;
27925;SDS011;15267;47.838;12.128;2022-08-03T14:36:03;1.27;;;0.82;;
27925;SDS011;15267;47.838;12.128;2022-08-03T14:38:29;1.00;;;0.70;;
27925;SDS011;15267;47.838;12.128;2022-08-03T14:40:55;0.98;;;0.60;;
27925;SDS011;15267;47.838;12.128;2022-08-03T14:43:21;3.90;;;0.68;;
27925;SDS011;15267;47.838;12.128;2022-08-03T14:45:48;1.20;;;0.60;;
27925;SDS011;15267;47.838;12.128;2022-08-03T14:48:16;2.05;;;0.73;;
27925;SDS011;15267;47.838;12.128;2022-08-03T14:50:42;1.55;;;0.73;;
27925;SDS011;15267;47.838;12.128;2022-08-03T14:53:08;2.60;;;0.85;;
27925;SDS011;15267;47.838;12.128;2022-08-03T14:55:34;1.98;;;0.57;;
27925;SDS011;15267;47.838;12.128;2022-08-03T14:58:00;2.60;;;0.70;;
27925;SDS011;15267;47.838;12.128;2022-08-03T15:00:30;2.83;;;0.70;;
27925;SDS011;15267;47.838;12.128;2022-08-03T15:02:56;0.77;;;0.70;;
27925;SDS011;15267;47.838;12.128;2022-08-03T15:05:22;1.27;;;0.60;;
27925;SDS011;15267;47.838;12.128;2022-08-03T15:07:48;1.95;;;0.80;;
27925;SDS011;15267;47.838;12.128;2022-08-03T15:10:14;2.05;;;0.80;;
27925;SDS011;15267;47.838;12.128;2022-08-03T15:12:40;2.60;;;0.73;;
27925;SDS011;15267;47.838;12.128;2022-08-03T15:15:06;3.60;;;0.70;;
27925;SDS011;15267;47.838;12.128;2022-08-03T15:17:32;2.35;;;0.70;;
27925;SDS011;15267;47.838;12.128;2022-08-03T15:19:58;1.77;;;0.75;;
27925;SDS011;15267;47.838;12.128;2022-08-03T15:22:24;1.92;;;0.80;;
27925;SDS011;15267;47.838;12.128;2022-08-03T15:24:50;1.30;;;0.68;;